Darstellungsparameter: Aktuell verwendete Einstellungen:
Skalierung der Graphiken ... ?
xyx+y,   Skalierungsfaktor:      Skalierung: Modus: x, Faktor: 1
Darstellungszeitraum ... ?
Vom - - bis: - -   Zeitraum: 06.05.2020 - 08.05.2020
Min/Max/Avg-Anzeige ... ?
Zeige MMA aktuell
Zeige MMA Monat
Zeige MMA alles
Zeige --A aktuell
Zeige --A Monat
Zeige --A alles
Keine MMA-Anzeige
MMA:
Average (ber die Originaldaten)
MMA-Basis: 06.05.2020 - 08.05.2020
Quicknavigation für Darstellung... ?
Tage:      1T, 2T, 3T, 5T -1T -2T -3T -5T +1T +2T +3T +5T
Wochen: 1W, 2W, 3W -1W -2W -3W +1W +2W +3W
Monate: 1M, 3M, 6M -1M -3M -6M +1M +3M +6M
Jahre:    1J, 3J, 5J, 10J -1J -3J -5J -10J +1J +3J +5J +10J
Nutze für die Darstellung ... ?
Originaldaten oder Mittelwerte auf ...
Stundenbasis Tagesbasis Wochenbasis
Monatsbasis Jahresbasis      Datenbasis: Original-Daten
Darstellen als:
Statistik (Auto) Statistik J:M      Darstellung:
Zur Graphik,    zurück zur Übersicht aller Sensoren.
 
Tabellarische Datenbersicht: ?
 
Sensor: Nr:Datum:Temp:Abs-Feuchte:Windchill:Wind:
Aussen-T/F 1 06-05-2020 00:00:00 7.6 C 5.64 g/m*3 7.6 C 3.2 km/h
2 06-05-2020 00:05:00 7.5 C 5.6 g/m*3 7.5 C 3.2 km/h
3 06-05-2020 00:10:00 7.4 C 5.57 g/m*3 7.4 C 4.8 km/h
4 06-05-2020 00:15:00 7.4 C 5.57 g/m*3 7.4 C 1.6 km/h
5 06-05-2020 00:20:00 7.3 C 5.61 g/m*3 7.3 C 1.6 km/h
6 06-05-2020 00:25:00 7.3 C 5.53 g/m*3 7.3 C 0 km/h
7 06-05-2020 00:30:00 7.2 C 5.65 g/m*3 7.2 C 0 km/h
8 06-05-2020 00:35:00 7.2 C 5.65 g/m*3 7.2 C 0 km/h
9 06-05-2020 00:40:00 7.1 C 5.69 g/m*3 7.1 C 3.2 km/h
10 06-05-2020 00:45:00 7 C 5.66 g/m*3 7 C 4.8 km/h
11 06-05-2020 00:50:00 6.9 C 5.7 g/m*3 6.9 C 3.2 km/h
12 06-05-2020 00:55:00 6.8 C 5.66 g/m*3 6.8 C 0 km/h
13 06-05-2020 01:00:00 6.7 C 5.62 g/m*3 6.7 C 3.2 km/h
14 06-05-2020 01:05:00 6.5 C 5.55 g/m*3 6.5 C 4.8 km/h
15 06-05-2020 01:10:00 6.4 C 5.59 g/m*3 6.4 C 4.8 km/h
16 06-05-2020 01:15:00 6.3 C 5.63 g/m*3 6.3 C 0 km/h
17 06-05-2020 01:20:00 6.1 C 5.55 g/m*3 6.1 C 0 km/h
18 06-05-2020 01:25:00 5.9 C 5.48 g/m*3 5.9 C 3.2 km/h
19 06-05-2020 01:30:00 5.8 C 5.52 g/m*3 5.8 C 0 km/h
20 06-05-2020 01:35:00 5.7 C 5.55 g/m*3 5.7 C 0 km/h
21 06-05-2020 01:40:00 5.6 C 5.51 g/m*3 5.6 C 0 km/h
22 06-05-2020 01:45:00 5.4 C 5.51 g/m*3 5.4 C 0 km/h
23 06-05-2020 01:50:00 5.3 C 5.54 g/m*3 5.3 C 0 km/h
24 06-05-2020 01:55:00 5.2 C 5.51 g/m*3 5.2 C 0 km/h
25 06-05-2020 02:00:00 5 C 5.44 g/m*3 5 C 0 km/h
Sensor: Nr:Datum:Temp:Abs-Feuchte:Windchill:Wind:
Aussen-T/F 26 06-05-2020 02:05:00 4.9 C 5.47 g/m*3 4.9 C 0 km/h
27 06-05-2020 02:10:00 4.8 C 5.43 g/m*3 4.8 C 0 km/h
28 06-05-2020 02:15:00 4.7 C 5.46 g/m*3 4.7 C 0 km/h
29 06-05-2020 02:20:00 4.6 C 5.49 g/m*3 4.6 C 0 km/h
30 06-05-2020 02:25:00 4.5 C 5.46 g/m*3 4.5 C 0 km/h
31 06-05-2020 02:30:00 4.4 C 5.42 g/m*3 4.4 C 0 km/h
32 06-05-2020 02:35:00 4.4 C 5.42 g/m*3 4.4 C 0 km/h
33 06-05-2020 02:40:00 4.3 C 5.38 g/m*3 4.3 C 0 km/h
34 06-05-2020 02:45:00 4.3 C 5.45 g/m*3 4.3 C 0 km/h
35 06-05-2020 02:50:00 4.2 C 5.41 g/m*3 4.2 C 0 km/h
36 06-05-2020 02:55:00 4.1 C 5.38 g/m*3 4.1 C 0 km/h
37 06-05-2020 03:00:00 4 C 5.4 g/m*3 4 C 0 km/h
38 06-05-2020 03:05:00 3.9 C 5.37 g/m*3 3.9 C 0 km/h
39 06-05-2020 03:10:00 3.8 C 5.33 g/m*3 3.8 C 0 km/h
40 06-05-2020 03:15:00 3.7 C 5.3 g/m*3 3.7 C 0 km/h
41 06-05-2020 03:20:00 3.6 C 5.26 g/m*3 3.6 C 0 km/h
42 06-05-2020 03:25:00 3.6 C 5.32 g/m*3 3.6 C 0 km/h
43 06-05-2020 03:30:00 3.5 C 5.29 g/m*3 3.5 C 0 km/h
44 06-05-2020 03:35:00 3.4 C 5.25 g/m*3 3.4 C 0 km/h
45 06-05-2020 03:40:00 3.3 C 5.22 g/m*3 3.3 C 0 km/h
46 06-05-2020 03:45:00 3.3 C 5.28 g/m*3 3.3 C 0 km/h
47 06-05-2020 03:50:00 3.3 C 5.28 g/m*3 3.3 C 0 km/h
48 06-05-2020 03:55:00 3.2 C 5.3 g/m*3 3.2 C 0 km/h
49 06-05-2020 04:00:00 3.2 C 5.24 g/m*3 3.2 C 0 km/h
50 06-05-2020 04:05:00 3.2 C 5.24 g/m*3 3.2 C 0 km/h
Sensor: Nr:Datum:Temp:Abs-Feuchte:Windchill:Wind:
Aussen-T/F 51 06-05-2020 04:10:00 3.1 C 5.27 g/m*3 3.1 C 0 km/h
52 06-05-2020 04:15:00 3.1 C 5.27 g/m*3 3.1 C 0 km/h
53 06-05-2020 04:20:00 3.1 C 5.27 g/m*3 3.1 C 0 km/h
54 06-05-2020 04:25:00 3.1 C 5.27 g/m*3 3.1 C 0 km/h
55 06-05-2020 04:30:00 3.1 C 5.33 g/m*3 3.1 C 0 km/h
56 06-05-2020 04:35:00 2.9 C 5.2 g/m*3 2.9 C 0 km/h
57 06-05-2020 04:40:00 2.9 C 5.26 g/m*3 2.9 C 0 km/h
58 06-05-2020 04:45:00 2.9 C 5.26 g/m*3 2.9 C 0 km/h
59 06-05-2020 04:50:00 2.8 C 5.22 g/m*3 2.8 C 0 km/h
60 06-05-2020 04:55:00 2.8 C 5.22 g/m*3 2.8 C 0 km/h
61 06-05-2020 05:00:00 2.8 C 5.28 g/m*3 2.8 C 1.6 km/h
62 06-05-2020 05:05:00 2.8 C 5.28 g/m*3 2.8 C 0 km/h
63 06-05-2020 05:10:00 2.7 C 5.24 g/m*3 2.7 C 0 km/h
64 06-05-2020 05:15:00 2.7 C 5.24 g/m*3 2.7 C 0 km/h
65 06-05-2020 05:20:00 2.6 C 5.21 g/m*3 2.6 C 0 km/h
66 06-05-2020 05:25:00 2.6 C 5.21 g/m*3 2.6 C 0 km/h
67 06-05-2020 05:30:00 2.6 C 5.21 g/m*3 2.6 C 0 km/h
68 06-05-2020 05:35:00 2.5 C 5.17 g/m*3 2.5 C 0 km/h
69 06-05-2020 05:40:00 2.5 C 5.17 g/m*3 2.5 C 0 km/h
70 06-05-2020 05:45:00 2.4 C 5.14 g/m*3 2.4 C 0 km/h
71 06-05-2020 05:50:00 2.3 C 5.1 g/m*3 2.3 C 0 km/h
72 06-05-2020 05:55:00 2.2 C 5.07 g/m*3 2.2 C 0 km/h
73 06-05-2020 06:00:00 2.2 C 5.13 g/m*3 2.2 C 0 km/h
74 06-05-2020 06:05:00 2.1 C 5.09 g/m*3 2.1 C 0 km/h
75 06-05-2020 06:10:00 2.2 C 5.13 g/m*3 2.2 C 0 km/h
Sensor: Nr:Datum:Temp:Abs-Feuchte:Windchill:Wind:
Aussen-T/F 76 06-05-2020 06:15:00 2.1 C 5.09 g/m*3 2.1 C 0 km/h
77 06-05-2020 06:20:00 2.1 C 5.09 g/m*3 2.1 C 0 km/h
78 06-05-2020 06:25:00 2.1 C 5.15 g/m*3 2.1 C 0 km/h
79 06-05-2020 06:30:00 2 C 5.11 g/m*3 2 C 0 km/h
80 06-05-2020 06:35:00 2 C 5.11 g/m*3 2 C 0 km/h
81 06-05-2020 06:40:00 2.1 C 5.15 g/m*3 2.1 C 0 km/h
82 06-05-2020 06:45:00 2.1 C 5.15 g/m*3 2.1 C 0 km/h
83 06-05-2020 06:50:00 2.1 C 5.15 g/m*3 2.1 C 0 km/h
84 06-05-2020 06:55:00 2.1 C 5.15 g/m*3 2.1 C 0 km/h
85 06-05-2020 07:00:00 2.2 C 5.18 g/m*3 2.2 C 0 km/h
86 06-05-2020 07:05:00 2.2 C 5.24 g/m*3 2.2 C 0 km/h
87 06-05-2020 07:10:00 2.2 C 5.24 g/m*3 2.2 C 0 km/h
88 06-05-2020 07:15:00 2.3 C 5.27 g/m*3 2.3 C 0 km/h
89 06-05-2020 07:20:00 2.3 C 5.27 g/m*3 2.3 C 0 km/h
90 06-05-2020 07:25:00 2.4 C 5.31 g/m*3 2.4 C 0 km/h
91 06-05-2020 07:30:00 2.4 C 5.31 g/m*3 2.4 C 1.6 km/h
92 06-05-2020 07:35:00 2.5 C 5.35 g/m*3 2.5 C 0 km/h
93 06-05-2020 07:40:00 2.6 C 5.38 g/m*3 2.6 C 0 km/h
94 06-05-2020 07:45:00 2.6 C 5.38 g/m*3 2.6 C 0 km/h
95 06-05-2020 07:50:00 2.7 C 5.42 g/m*3 2.7 C 0 km/h
96 06-05-2020 07:55:00 2.8 C 5.46 g/m*3 2.8 C 1.6 km/h
97 06-05-2020 08:00:00 2.9 C 5.55 g/m*3 2.9 C 0 km/h
98 06-05-2020 08:05:00 2.9 C 5.55 g/m*3 2.9 C 0 km/h
99 06-05-2020 08:10:00 3.1 C 5.63 g/m*3 3.1 C 0 km/h
100 06-05-2020 08:15:00 3.2 C 5.66 g/m*3 3.2 C 1.6 km/h
Sensor: Nr:Datum:Temp:Abs-Feuchte:Windchill:Wind:
Aussen-T/F 101 06-05-2020 08:20:00 3.2 C 5.66 g/m*3 3.2 C 0 km/h
102 06-05-2020 08:25:00 3.3 C 5.7 g/m*3 3.3 C 0 km/h
103 06-05-2020 08:30:00 3.4 C 5.74 g/m*3 3.4 C 0 km/h
104 06-05-2020 08:35:00 3.7 C 5.86 g/m*3 3.7 C 0 km/h
105 06-05-2020 08:40:00 3.8 C 5.9 g/m*3 3.8 C 0 km/h
106 06-05-2020 08:45:00 4 C 5.98 g/m*3 4 C 0 km/h
107 06-05-2020 08:50:00 4.2 C 6.06 g/m*3 4.2 C 0 km/h
108 06-05-2020 08:55:00 4.4 C 6.14 g/m*3 4.4 C 0 km/h
109 06-05-2020 09:00:00 4.6 C 6.22 g/m*3 4.6 C 1.6 km/h
110 06-05-2020 09:05:00 4.8 C 6.3 g/m*3 4.8 C 1.6 km/h
111 06-05-2020 09:10:00 5.1 C 6.43 g/m*3 5.1 C 0 km/h
112 06-05-2020 09:15:00 5.3 C 6.52 g/m*3 5.3 C 0 km/h
113 06-05-2020 09:20:00 5.4 C 6.49 g/m*3 5.4 C 1.6 km/h
114 06-05-2020 09:25:00 5.7 C 6.62 g/m*3 5.7 C 0 km/h
115 06-05-2020 09:30:00 5.9 C 6.63 g/m*3 5.9 C 0 km/h
116 06-05-2020 09:35:00 6.1 C 6.72 g/m*3 6.1 C 1.6 km/h
117 06-05-2020 09:40:00 6.3 C 6.74 g/m*3 6.3 C 0 km/h
118 06-05-2020 09:45:00 6.4 C 6.78 g/m*3 6.4 C 0 km/h
119 06-05-2020 09:50:00 6.6 C 6.87 g/m*3 6.6 C 0 km/h
120 06-05-2020 09:55:00 6.8 C 6.88 g/m*3 6.8 C 0 km/h
121 06-05-2020 10:00:00 7 C 6.97 g/m*3 7 C 0 km/h
122 06-05-2020 10:05:00 7.2 C 6.99 g/m*3 7.2 C 0 km/h
123 06-05-2020 10:10:00 7.4 C 7 g/m*3 7.4 C 1.6 km/h
124 06-05-2020 10:15:00 7.7 C 6.81 g/m*3 7.7 C 3.2 km/h
125 06-05-2020 10:20:00 8 C 6.61 g/m*3 8 C 1.6 km/h
Sensor: Nr:Datum:Temp:Abs-Feuchte:Windchill:Wind:
Aussen-T/F 126 06-05-2020 10:25:00 8.6 C 6.27 g/m*3 7.34 C 8.1 km/h
127 06-05-2020 10:30:00 9.7 C 5.99 g/m*3 8.33 C 9.7 km/h
128 06-05-2020 10:35:00 10.6 C 6.54 g/m*3 8.92 C 12.9 km/h
129 06-05-2020 10:40:00 11.2 C 5.37 g/m*3 11.2 C 12.9 km/h
130 06-05-2020 10:45:00 11.7 C 5.54 g/m*3 11.7 C 14.5 km/h
131 06-05-2020 10:50:00 11.9 C 5.4 g/m*3 11.9 C 11.3 km/h
132 06-05-2020 10:55:00 12.2 C 5.83 g/m*3 12.2 C 17.7 km/h
133 06-05-2020 11:00:00 12.2 C 5.07 g/m*3 12.2 C 8.1 km/h
134 06-05-2020 11:05:00 12.3 C 5.21 g/m*3 12.3 C 4.8 km/h
135 06-05-2020 11:10:00 12.5 C 4.84 g/m*3 12.5 C 16.1 km/h
136 06-05-2020 11:15:00 12.7 C 4.79 g/m*3 12.7 C 9.7 km/h
137 06-05-2020 11:20:00 12.8 C 4.93 g/m*3 12.8 C 4.8 km/h
138 06-05-2020 11:25:00 12.9 C 4.96 g/m*3 12.9 C 8.1 km/h
139 06-05-2020 11:30:00 13 C 5.1 g/m*3 13 C 6.4 km/h
140 06-05-2020 11:35:00 13.2 C 4.71 g/m*3 13.2 C 8.1 km/h
141 06-05-2020 11:40:00 13.2 C 4.71 g/m*3 13.2 C 8.1 km/h
142 06-05-2020 11:45:00 13.2 C 4.82 g/m*3 13.2 C 14.5 km/h
143 06-05-2020 11:50:00 13.3 C 4.74 g/m*3 13.3 C 16.1 km/h
144 06-05-2020 11:55:00 13.4 C 4.42 g/m*3 13.4 C 12.9 km/h
145 06-05-2020 12:00:00 13.5 C 4.44 g/m*3 13.5 C 6.4 km/h
146 06-05-2020 12:05:00 13.6 C 4.71 g/m*3 13.6 C 4.8 km/h
147 06-05-2020 12:10:00 13.4 C 4.65 g/m*3 13.4 C 9.7 km/h
148 06-05-2020 12:15:00 13.5 C 4.56 g/m*3 13.5 C 6.4 km/h
149 06-05-2020 12:20:00 13.6 C 4.59 g/m*3 13.6 C 6.4 km/h
150 06-05-2020 12:25:00 13.7 C 4.62 g/m*3 13.7 C 6.4 km/h
Sensor: Nr:Datum:Temp:Abs-Feuchte:Windchill:Wind:
Aussen-T/F 151 06-05-2020 12:30:00 13.8 C 4.77 g/m*3 13.8 C 11.3 km/h
152 06-05-2020 12:35:00 13.9 C 4.56 g/m*3 13.9 C 14.5 km/h
153 06-05-2020 12:40:00 14 C 4.7 g/m*3 14 C 16.1 km/h
154 06-05-2020 12:45:00 13.9 C 4.8 g/m*3 13.9 C 8.1 km/h
155 06-05-2020 12:50:00 14 C 4.82 g/m*3 14 C 9.7 km/h
156 06-05-2020 12:55:00 14.1 C 4.73 g/m*3 14.1 C 9.7 km/h
157 06-05-2020 13:00:00 14.1 C 4.73 g/m*3 14.1 C 11.3 km/h
158 06-05-2020 13:05:00 14.2 C 4.76 g/m*3 14.2 C 12.9 km/h
159 06-05-2020 13:10:00 14.2 C 4.76 g/m*3 14.2 C 6.4 km/h
160 06-05-2020 13:15:00 14.3 C 4.91 g/m*3 14.3 C 12.9 km/h
161 06-05-2020 13:20:00 14.5 C 4.85 g/m*3 14.5 C 9.7 km/h
162 06-05-2020 13:25:00 14.7 C 5.16 g/m*3 14.7 C 9.7 km/h
163 06-05-2020 13:30:00 14.7 C 4.91 g/m*3 14.7 C 12.9 km/h
164 06-05-2020 13:35:00 14.7 C 5.04 g/m*3 14.7 C 8.1 km/h
165 06-05-2020 13:40:00 14.8 C 5.07 g/m*3 14.8 C 6.4 km/h
166 06-05-2020 13:45:00 14.8 C 5.19 g/m*3 14.8 C 8.1 km/h
167 06-05-2020 13:50:00 15 C 5.13 g/m*3 15 C 9.7 km/h
168 06-05-2020 13:55:00 15.2 C 5.19 g/m*3 15.2 C 16.1 km/h
169 06-05-2020 14:00:00 15.2 C 5.32 g/m*3 15.2 C 8.1 km/h
170 06-05-2020 14:05:00 15.4 C 5.26 g/m*3 15.4 C 11.3 km/h
171 06-05-2020 14:10:00 15.5 C 5.16 g/m*3 15.5 C 8.1 km/h
172 06-05-2020 14:15:00 15.6 C 4.65 g/m*3 15.6 C 14.5 km/h
173 06-05-2020 14:20:00 15.6 C 4.65 g/m*3 15.6 C 12.9 km/h
174 06-05-2020 14:25:00 15.7 C 4.82 g/m*3 15.7 C 9.7 km/h
175 06-05-2020 14:30:00 15.7 C 4.42 g/m*3 15.7 C 12.9 km/h
Sensor: Nr:Datum:Temp:Abs-Feuchte:Windchill:Wind:
Aussen-T/F 176 06-05-2020 14:35:00 15.8 C 4.31 g/m*3 15.8 C 6.4 km/h
177 06-05-2020 14:40:00 15.9 C 4.74 g/m*3 15.9 C 12.9 km/h
178 06-05-2020 14:45:00 16.2 C 4.83 g/m*3 16.2 C 14.5 km/h
179 06-05-2020 14:50:00 16.4 C 4.89 g/m*3 16.4 C 12.9 km/h
180 06-05-2020 14:55:00 16.7 C 4.69 g/m*3 16.7 C 9.7 km/h
181 06-05-2020 15:00:00 16.7 C 4.97 g/m*3 16.7 C 14.5 km/h
182 06-05-2020 15:05:00 16.9 C 4.75 g/m*3 16.9 C 12.9 km/h
183 06-05-2020 15:10:00 16.9 C 4.6 g/m*3 16.9 C 9.7 km/h
184 06-05-2020 15:15:00 17 C 5.21 g/m*3 17 C 8.1 km/h
185 06-05-2020 15:20:00 17.1 C 4.8 g/m*3 17.1 C 11.3 km/h
186 06-05-2020 15:25:00 17.1 C 4.66 g/m*3 17.1 C 11.3 km/h
187 06-05-2020 15:30:00 17.1 C 4.8 g/m*3 17.1 C 4.8 km/h
188 06-05-2020 15:35:00 17.5 C 4.47 g/m*3 17.5 C 16.1 km/h
189 06-05-2020 15:40:00 17.6 C 4.95 g/m*3 17.6 C 8.1 km/h
190 06-05-2020 15:45:00 17.8 C 4.71 g/m*3 17.8 C 12.9 km/h
191 06-05-2020 15:50:00 17.9 C 4.89 g/m*3 17.9 C 14.5 km/h
192 06-05-2020 15:55:00 18.2 C 4.97 g/m*3 18.2 C 9.7 km/h
193 06-05-2020 16:00:00 18.4 C 4.88 g/m*3 18.4 C 17.7 km/h
194 06-05-2020 16:05:00 18.3 C 5 g/m*3 18.3 C 14.5 km/h
195 06-05-2020 16:10:00 18.4 C 5.19 g/m*3 18.4 C 12.9 km/h
196 06-05-2020 16:15:00 18.8 C 4.99 g/m*3 18.8 C 3.2 km/h
197 06-05-2020 16:20:00 19.3 C 5.14 g/m*3 19.3 C 3.2 km/h
198 06-05-2020 16:25:00 19.3 C 4.98 g/m*3 19.3 C 14.5 km/h
199 06-05-2020 16:30:00 19.1 C 5.08 g/m*3 19.1 C 9.7 km/h
200 06-05-2020 16:35:00 19.2 C 4.95 g/m*3 19.2 C 11.3 km/h
Sensor: Nr:Datum:Temp:Abs-Feuchte:Windchill:Wind:
Aussen-T/F 201 06-05-2020 16:40:00 19.1 C 4.75 g/m*3 19.1 C 9.7 km/h
202 06-05-2020 16:45:00 19.1 C 4.92 g/m*3 19.1 C 9.7 km/h
203 06-05-2020 16:50:00 19 C 4.89 g/m*3 19 C 11.3 km/h
204 06-05-2020 16:55:00 18.9 C 4.86 g/m*3 18.9 C 6.4 km/h
205 06-05-2020 17:00:00 19.2 C 5.11 g/m*3 19.2 C 9.7 km/h
206 06-05-2020 17:05:00 19.4 C 5.01 g/m*3 19.4 C 11.3 km/h
207 06-05-2020 17:10:00 19.6 C 5.23 g/m*3 19.6 C 6.4 km/h
208 06-05-2020 17:15:00 19.8 C 5.47 g/m*3 19.8 C 6.4 km/h
209 06-05-2020 17:20:00 19.8 C 5.12 g/m*3 19.8 C 6.4 km/h
210 06-05-2020 17:25:00 19.8 C 5.12 g/m*3 19.8 C 4.8 km/h
211 06-05-2020 17:30:00 19.9 C 4.98 g/m*3 19.9 C 8.1 km/h
212 06-05-2020 17:35:00 19.7 C 5.43 g/m*3 19.7 C 8.1 km/h
213 06-05-2020 17:40:00 19.7 C 4.92 g/m*3 19.7 C 9.7 km/h
214 06-05-2020 17:45:00 19.7 C 5.26 g/m*3 19.7 C 3.2 km/h
215 06-05-2020 17:50:00 19.9 C 5.15 g/m*3 19.9 C 4.8 km/h
216 06-05-2020 17:55:00 19.9 C 5.15 g/m*3 19.9 C 6.4 km/h
217 06-05-2020 18:00:00 20.1 C 5.21 g/m*3 20.1 C 6.4 km/h
218 06-05-2020 18:05:00 20.2 C 5.77 g/m*3 20.2 C 4.8 km/h
219 06-05-2020 18:10:00 20.3 C 5.28 g/m*3 20.3 C 8.1 km/h
220 06-05-2020 18:15:00 20.1 C 5.39 g/m*3 20.1 C 6.4 km/h
221 06-05-2020 18:20:00 20.2 C 5.42 g/m*3 20.2 C 6.4 km/h
222 06-05-2020 18:25:00 20.3 C 5.1 g/m*3 20.3 C 6.4 km/h
223 06-05-2020 18:30:00 20.2 C 5.07 g/m*3 20.2 C 6.4 km/h
224 06-05-2020 18:35:00 20.2 C 5.25 g/m*3 20.2 C 6.4 km/h
225 06-05-2020 18:40:00 20.3 C 5.28 g/m*3 20.3 C 4.8 km/h
Sensor: Nr:Datum:Temp:Abs-Feuchte:Windchill:Wind:
Aussen-T/F 226 06-05-2020 18:45:00 20.4 C 5.13 g/m*3 20.4 C 4.8 km/h
227 06-05-2020 18:50:00 20.3 C 5.1 g/m*3 20.3 C 6.4 km/h
228 06-05-2020 18:55:00 20.2 C 5.25 g/m*3 20.2 C 8.1 km/h
229 06-05-2020 19:00:00 19.9 C 5.15 g/m*3 19.9 C 6.4 km/h
230 06-05-2020 19:05:00 19.8 C 5.12 g/m*3 19.8 C 6.4 km/h
231 06-05-2020 19:10:00 19.8 C 5.12 g/m*3 19.8 C 8.1 km/h
232 06-05-2020 19:15:00 19.6 C 5.4 g/m*3 19.6 C 6.4 km/h
233 06-05-2020 19:20:00 19.4 C 5.51 g/m*3 19.4 C 8.1 km/h
234 06-05-2020 19:25:00 19.1 C 5.08 g/m*3 19.1 C 4.8 km/h
235 06-05-2020 19:30:00 18.9 C 5.35 g/m*3 18.9 C 3.2 km/h
236 06-05-2020 19:35:00 18.8 C 5.48 g/m*3 18.8 C 3.2 km/h
237 06-05-2020 19:40:00 18.7 C 5.12 g/m*3 18.7 C 3.2 km/h
238 06-05-2020 19:45:00 18.6 C 5.25 g/m*3 18.6 C 4.8 km/h
239 06-05-2020 19:50:00 18.5 C 5.38 g/m*3 18.5 C 3.2 km/h
240 06-05-2020 19:55:00 18.4 C 6.92 g/m*3 18.4 C 1.6 km/h
241 06-05-2020 20:00:00 18.3 C 6.1 g/m*3 18.3 C 1.6 km/h
242 06-05-2020 20:05:00 18.2 C 6.06 g/m*3 18.2 C 1.6 km/h
243 06-05-2020 20:10:00 18.1 C 7.26 g/m*3 18.1 C 3.2 km/h
244 06-05-2020 20:15:00 17.8 C 7.29 g/m*3 17.8 C 4.8 km/h
245 06-05-2020 20:20:00 17.2 C 7.18 g/m*3 17.2 C 4.8 km/h
246 06-05-2020 20:25:00 16.7 C 7.25 g/m*3 16.7 C 4.8 km/h
247 06-05-2020 20:30:00 16.1 C 7.13 g/m*3 16.1 C 4.8 km/h
248 06-05-2020 20:35:00 15.4 C 6.83 g/m*3 15.4 C 6.4 km/h
249 06-05-2020 20:40:00 14.8 C 6.84 g/m*3 14.8 C 6.4 km/h
250 06-05-2020 20:45:00 14.3 C 6.76 g/m*3 14.3 C 8.1 km/h
Sensor: Nr:Datum:Temp:Abs-Feuchte:Windchill:Wind:
Aussen-T/F 251 06-05-2020 20:50:00 13.9 C 6.83 g/m*3 13.9 C 8.1 km/h
252 06-05-2020 20:55:00 13.6 C 6.59 g/m*3 13.6 C 8.1 km/h
253 06-05-2020 21:00:00 13.3 C 6.47 g/m*3 13.3 C 8.1 km/h
254 06-05-2020 21:05:00 13 C 6.24 g/m*3 13 C 8.1 km/h
255 06-05-2020 21:10:00 12.8 C 6.27 g/m*3 12.8 C 8.1 km/h
256 06-05-2020 21:15:00 12.6 C 6.53 g/m*3 12.6 C 8.1 km/h
257 06-05-2020 21:20:00 12.4 C 6.56 g/m*3 12.4 C 8.1 km/h
258 06-05-2020 21:25:00 12.2 C 6.58 g/m*3 12.2 C 8.1 km/h
259 06-05-2020 21:30:00 12 C 6.61 g/m*3 12 C 6.4 km/h
260 06-05-2020 21:35:00 11.8 C 6.84 g/m*3 11.8 C 3.2 km/h
261 06-05-2020 21:40:00 11.6 C 6.86 g/m*3 11.6 C 0 km/h
262 06-05-2020 21:45:00 11.3 C 6.83 g/m*3 11.3 C 3.2 km/h
263 06-05-2020 21:50:00 10.9 C 6.66 g/m*3 10.9 C 1.6 km/h
264 06-05-2020 21:55:00 10.7 C 6.48 g/m*3 10.7 C 3.2 km/h
265 06-05-2020 22:00:00 10.6 C 6.73 g/m*3 10.6 C 3.2 km/h
266 06-05-2020 22:05:00 10.3 C 6.61 g/m*3 10.3 C 3.2 km/h
267 06-05-2020 22:10:00 10.1 C 6.62 g/m*3 10.1 C 4.8 km/h
268 06-05-2020 22:15:00 9.9 C 6.54 g/m*3 9.9 C 3.2 km/h
269 06-05-2020 22:20:00 9.8 C 6.59 g/m*3 9.8 C 0 km/h
270 06-05-2020 22:25:00 9.7 C 6.45 g/m*3 9.02 C 6.4 km/h
271 06-05-2020 22:30:00 9.7 C 6.55 g/m*3 9.7 C 1.6 km/h
272 06-05-2020 22:35:00 9.6 C 6.6 g/m*3 9.6 C 0 km/h
273 06-05-2020 22:40:00 9.4 C 6.51 g/m*3 9.4 C 0 km/h
274 06-05-2020 22:45:00 9.2 C 6.43 g/m*3 9.2 C 0 km/h
275 06-05-2020 22:50:00 9.1 C 6.48 g/m*3 9.1 C 0 km/h
Sensor: Nr:Datum:Temp:Abs-Feuchte:Windchill:Wind:
Aussen-T/F 276 06-05-2020 22:55:00 9 C 6.44 g/m*3 9 C 0 km/h
277 06-05-2020 23:00:00 8.8 C 6.35 g/m*3 8.8 C 0 km/h
278 06-05-2020 23:05:00 8.7 C 6.4 g/m*3 8.7 C 0 km/h
279 06-05-2020 23:10:00 8.6 C 6.44 g/m*3 8.6 C 0 km/h
280 06-05-2020 23:15:00 8.4 C 6.36 g/m*3 8.4 C 0 km/h
281 06-05-2020 23:20:00 8.2 C 6.36 g/m*3 8.2 C 0 km/h
282 06-05-2020 23:25:00 8.1 C 6.41 g/m*3 8.1 C 0 km/h
283 06-05-2020 23:30:00 7.9 C 6.32 g/m*3 7.9 C 0 km/h
284 06-05-2020 23:35:00 7.8 C 6.37 g/m*3 7.8 C 0 km/h
285 06-05-2020 23:40:00 7.7 C 6.32 g/m*3 7.7 C 0 km/h
286 06-05-2020 23:45:00 7.6 C 6.28 g/m*3 7.6 C 0 km/h
287 06-05-2020 23:50:00 7.4 C 6.2 g/m*3 7.4 C 0 km/h
288 06-05-2020 23:55:00 7.3 C 6.16 g/m*3 7.3 C 0 km/h
289 07-05-2020 00:00:00 7.2 C 6.2 g/m*3 7.2 C 0 km/h
290 07-05-2020 00:05:00 7.2 C 6.2 g/m*3 7.2 C 0 km/h
291 07-05-2020 00:10:00 7.1 C 6.16 g/m*3 7.1 C 0 km/h
292 07-05-2020 00:15:00 7 C 6.2 g/m*3 7 C 0 km/h
293 07-05-2020 00:20:00 6.9 C 6.16 g/m*3 6.9 C 0 km/h
294 07-05-2020 00:25:00 6.8 C 6.12 g/m*3 6.8 C 0 km/h
295 07-05-2020 00:30:00 6.8 C 6.19 g/m*3 6.8 C 0 km/h
296 07-05-2020 00:35:00 6.7 C 6.15 g/m*3 6.7 C 0 km/h
297 07-05-2020 00:40:00 6.7 C 6.15 g/m*3 6.7 C 0 km/h
298 07-05-2020 00:45:00 6.6 C 6.11 g/m*3 6.6 C 3.2 km/h
299 07-05-2020 00:50:00 6.6 C 6.11 g/m*3 6.6 C 3.2 km/h
300 07-05-2020 00:55:00 6.7 C 6.15 g/m*3 6.7 C 0 km/h
Sensor: Nr:Datum:Temp:Abs-Feuchte:Windchill:Wind:
Aussen-T/F 301 07-05-2020 01:00:00 6.7 C 6.23 g/m*3 6.7 C 1.6 km/h
302 07-05-2020 01:05:00 6.7 C 6.23 g/m*3 6.7 C 0 km/h
303 07-05-2020 01:10:00 6.6 C 6.19 g/m*3 6.6 C 0 km/h
304 07-05-2020 01:15:00 6.6 C 6.19 g/m*3 6.6 C 3.2 km/h
305 07-05-2020 01:20:00 6.6 C 6.19 g/m*3 6.6 C 0 km/h
306 07-05-2020 01:25:00 6.5 C 6.15 g/m*3 6.5 C 0 km/h
307 07-05-2020 01:30:00 6.4 C 6.11 g/m*3 6.4 C 0 km/h
308 07-05-2020 01:35:00 6.3 C 6.07 g/m*3 6.3 C 0 km/h
309 07-05-2020 01:40:00 6.3 C 6.14 g/m*3 6.3 C 3.2 km/h
310 07-05-2020 01:45:00 6.2 C 6.1 g/m*3 6.2 C 0 km/h
311 07-05-2020 01:50:00 6.1 C 6.06 g/m*3 6.1 C 0 km/h
312 07-05-2020 01:55:00 6.1 C 6.06 g/m*3 6.1 C 0 km/h
313 07-05-2020 02:00:00 5.9 C 5.98 g/m*3 5.9 C 0 km/h
314 07-05-2020 02:05:00 5.8 C 6.02 g/m*3 5.8 C 0 km/h
315 07-05-2020 02:10:00 5.8 C 6.02 g/m*3 5.8 C 0 km/h
316 07-05-2020 02:15:00 5.8 C 6.09 g/m*3 5.8 C 0 km/h
317 07-05-2020 02:20:00 5.7 C 6.05 g/m*3 5.7 C 0 km/h
318 07-05-2020 02:25:00 5.6 C 6.01 g/m*3 5.6 C 0 km/h
319 07-05-2020 02:30:00 5.6 C 6.01 g/m*3 5.6 C 0 km/h
320 07-05-2020 02:35:00 5.4 C 5.93 g/m*3 5.4 C 0 km/h
321 07-05-2020 02:40:00 5.3 C 5.96 g/m*3 5.3 C 0 km/h
322 07-05-2020 02:45:00 5.3 C 5.96 g/m*3 5.3 C 0 km/h
323 07-05-2020 02:50:00 5.2 C 5.92 g/m*3 5.2 C 0 km/h
324 07-05-2020 02:55:00 5.1 C 5.88 g/m*3 5.1 C 0 km/h
325 07-05-2020 03:00:00 5 C 5.84 g/m*3 5 C 0 km/h
Sensor: Nr:Datum:Temp:Abs-Feuchte:Windchill:Wind:
Aussen-T/F 326 07-05-2020 03:05:00 5 C 5.91 g/m*3 5 C 0 km/h
327 07-05-2020 03:10:00 4.9 C 5.87 g/m*3 4.9 C 0 km/h
328 07-05-2020 03:15:00 4.9 C 5.87 g/m*3 4.9 C 0 km/h
329 07-05-2020 03:20:00 4.8 C 5.83 g/m*3 4.8 C 0 km/h
330 07-05-2020 03:25:00 4.8 C 5.9 g/m*3 4.8 C 0 km/h
331 07-05-2020 03:30:00 4.8 C 5.9 g/m*3 4.8 C 0 km/h
332 07-05-2020 03:35:00 4.8 C 5.9 g/m*3 4.8 C 0 km/h
333 07-05-2020 03:40:00 4.8 C 5.9 g/m*3 4.8 C 0 km/h
334 07-05-2020 03:45:00 4.7 C 5.86 g/m*3 4.7 C 0 km/h
335 07-05-2020 03:50:00 4.7 C 5.93 g/m*3 4.7 C 0 km/h
336 07-05-2020 03:55:00 4.7 C 5.93 g/m*3 4.7 C 0 km/h
337 07-05-2020 04:00:00 4.7 C 5.93 g/m*3 4.7 C 0 km/h
338 07-05-2020 04:05:00 4.6 C 5.89 g/m*3 4.6 C 0 km/h
339 07-05-2020 04:10:00 4.5 C 5.85 g/m*3 4.5 C 0 km/h
340 07-05-2020 04:15:00 4.4 C 5.81 g/m*3 4.4 C 0 km/h
341 07-05-2020 04:20:00 4.4 C 5.81 g/m*3 4.4 C 0 km/h
342 07-05-2020 04:25:00 4.3 C 5.77 g/m*3 4.3 C 0 km/h
343 07-05-2020 04:30:00 4.2 C 5.73 g/m*3 4.2 C 0 km/h
344 07-05-2020 04:35:00 4.2 C 5.73 g/m*3 4.2 C 0 km/h
345 07-05-2020 04:40:00 4.1 C 5.7 g/m*3 4.1 C 0 km/h
346 07-05-2020 04:45:00 4 C 5.72 g/m*3 4 C 0 km/h
347 07-05-2020 04:50:00 3.9 C 5.68 g/m*3 3.9 C 0 km/h
348 07-05-2020 04:55:00 3.9 C 5.68 g/m*3 3.9 C 0 km/h
349 07-05-2020 05:00:00 3.8 C 5.65 g/m*3 3.8 C 0 km/h
350 07-05-2020 05:05:00 3.8 C 5.65 g/m*3 3.8 C 0 km/h
Sensor: Nr:Datum:Temp:Abs-Feuchte:Windchill:Wind:
Aussen-T/F 351 07-05-2020 05:10:00 3.7 C 5.61 g/m*3 3.7 C 0 km/h
352 07-05-2020 05:15:00 3.7 C 5.61 g/m*3 3.7 C 0 km/h
353 07-05-2020 05:20:00 3.7 C 5.67 g/m*3 3.7 C 0 km/h
354 07-05-2020 05:25:00 3.7 C 5.67 g/m*3 3.7 C 0 km/h
355 07-05-2020 05:30:00 3.6 C 5.63 g/m*3 3.6 C 3.2 km/h
356 07-05-2020 05:35:00 3.6 C 5.63 g/m*3 3.6 C 0 km/h
357 07-05-2020 05:40:00 3.6 C 5.63 g/m*3 3.6 C 0 km/h
358 07-05-2020 05:45:00 3.6 C 5.63 g/m*3 3.6 C 1.6 km/h
359 07-05-2020 05:50:00 3.6 C 5.69 g/m*3 3.6 C 0 km/h
360 07-05-2020 05:55:00 3.7 C 5.73 g/m*3 3.7 C 0 km/h
361 07-05-2020 06:00:00 3.6 C 5.69 g/m*3 3.6 C 0 km/h
362 07-05-2020 06:05:00 3.6 C 5.63 g/m*3 3.6 C 0 km/h
363 07-05-2020 06:10:00 3.5 C 5.66 g/m*3 3.5 C 0 km/h
364 07-05-2020 06:15:00 3.4 C 5.62 g/m*3 3.4 C 0 km/h
365 07-05-2020 06:20:00 3.4 C 5.62 g/m*3 3.4 C 0 km/h
366 07-05-2020 06:25:00 3.4 C 5.62 g/m*3 3.4 C 0 km/h
367 07-05-2020 06:30:00 3.3 C 5.58 g/m*3 3.3 C 0 km/h
368 07-05-2020 06:35:00 3.3 C 5.58 g/m*3 3.3 C 0 km/h
369 07-05-2020 06:40:00 3.3 C 5.58 g/m*3 3.3 C 0 km/h
370 07-05-2020 06:45:00 3.3 C 5.58 g/m*3 3.3 C 0 km/h
371 07-05-2020 06:50:00 3.3 C 5.58 g/m*3 3.3 C 1.6 km/h
372 07-05-2020 06:55:00 3.4 C 5.68 g/m*3 3.4 C 0 km/h
373 07-05-2020 07:00:00 3.4 C 5.68 g/m*3 3.4 C 0 km/h
374 07-05-2020 07:05:00 3.4 C 5.68 g/m*3 3.4 C 0 km/h
375 07-05-2020 07:10:00 3.4 C 5.68 g/m*3 3.4 C 0 km/h
Sensor: Nr:Datum:Temp:Abs-Feuchte:Windchill:Wind:
Aussen-T/F 376 07-05-2020 07:15:00 3.4 C 5.68 g/m*3 3.4 C 0 km/h
377 07-05-2020 07:20:00 3.5 C 5.72 g/m*3 3.5 C 0 km/h
378 07-05-2020 07:25:00 3.6 C 5.76 g/m*3 3.6 C 0 km/h
379 07-05-2020 07:30:00 3.6 C 5.76 g/m*3 3.6 C 0 km/h
380 07-05-2020 07:35:00 3.6 C 5.76 g/m*3 3.6 C 0 km/h
381 07-05-2020 07:40:00 3.7 C 5.8 g/m*3 3.7 C 0 km/h
382 07-05-2020 07:45:00 3.7 C 5.8 g/m*3 3.7 C 1.6 km/h
383 07-05-2020 07:50:00 3.8 C 5.83 g/m*3 3.8 C 0 km/h
384 07-05-2020 07:55:00 3.8 C 5.83 g/m*3 3.8 C 0 km/h
385 07-05-2020 08:00:00 3.9 C 5.87 g/m*3 3.9 C 0 km/h
386 07-05-2020 08:05:00 3.9 C 5.94 g/m*3 3.9 C 0 km/h
387 07-05-2020 08:10:00 4 C 5.91 g/m*3 4 C 0 km/h
388 07-05-2020 08:15:00 4.1 C 5.95 g/m*3 4.1 C 0 km/h
389 07-05-2020 08:20:00 4.2 C 6.06 g/m*3 4.2 C 0 km/h
390 07-05-2020 08:25:00 4.3 C 6.1 g/m*3 4.3 C 0 km/h
391 07-05-2020 08:30:00 4.4 C 6.14 g/m*3 4.4 C 0 km/h
392 07-05-2020 08:35:00 4.6 C 6.22 g/m*3 4.6 C 0 km/h
393 07-05-2020 08:40:00 4.7 C 6.26 g/m*3 4.7 C 1.6 km/h
394 07-05-2020 08:45:00 4.8 C 6.3 g/m*3 4.8 C 0 km/h
395 07-05-2020 08:50:00 4.9 C 6.28 g/m*3 4.9 C 0 km/h
396 07-05-2020 08:55:00 5.1 C 6.43 g/m*3 5.1 C 0 km/h
397 07-05-2020 09:00:00 5.2 C 6.47 g/m*3 5.2 C 0 km/h
398 07-05-2020 09:05:00 5.4 C 6.56 g/m*3 5.4 C 0 km/h
399 07-05-2020 09:10:00 5.6 C 6.65 g/m*3 5.6 C 0 km/h
400 07-05-2020 09:15:00 5.8 C 6.73 g/m*3 5.8 C 0 km/h
Sensor: Nr:Datum:Temp:Abs-Feuchte:Windchill:Wind:
Aussen-T/F 401 07-05-2020 09:20:00 5.9 C 6.78 g/m*3 5.9 C 0 km/h
402 07-05-2020 09:25:00 6.2 C 6.91 g/m*3 6.2 C 0 km/h
403 07-05-2020 09:30:00 6.3 C 6.96 g/m*3 6.3 C 0 km/h
404 07-05-2020 09:35:00 6.5 C 7.05 g/m*3 6.5 C 0 km/h
405 07-05-2020 09:40:00 6.7 C 7.14 g/m*3 6.7 C 0 km/h
406 07-05-2020 09:45:00 6.9 C 7.16 g/m*3 6.9 C 0 km/h
407 07-05-2020 09:50:00 7.1 C 7.25 g/m*3 7.1 C 0 km/h
408 07-05-2020 09:55:00 7.3 C 7.35 g/m*3 7.3 C 0 km/h
409 07-05-2020 10:00:00 7.6 C 7.49 g/m*3 7.6 C 0 km/h
410 07-05-2020 10:05:00 7.8 C 7.51 g/m*3 7.8 C 0 km/h
411 07-05-2020 10:10:00 8.1 C 7.57 g/m*3 8.1 C 0 km/h
412 07-05-2020 10:15:00 8.3 C 7.67 g/m*3 8.3 C 0 km/h
413 07-05-2020 10:20:00 8.6 C 7.73 g/m*3 8.6 C 1.6 km/h
414 07-05-2020 10:25:00 8.9 C 7.8 g/m*3 8.9 C 0 km/h
415 07-05-2020 10:30:00 9.2 C 7.95 g/m*3 9.2 C 0 km/h
416 07-05-2020 10:35:00 9.4 C 7.96 g/m*3 9.4 C 0 km/h
417 07-05-2020 10:40:00 9.8 C 8.07 g/m*3 9.8 C 1.6 km/h
418 07-05-2020 10:45:00 10.2 C 7.99 g/m*3 10.2 C 3.2 km/h
419 07-05-2020 10:50:00 10.6 C 8.1 g/m*3 10.6 C 1.6 km/h
420 07-05-2020 10:55:00 11.2 C 7.8 g/m*3 11.2 C 1.6 km/h
421 07-05-2020 11:00:00 11.7 C 7.74 g/m*3 11.7 C 3.2 km/h
422 07-05-2020 11:05:00 12.2 C 7.55 g/m*3 12.2 C 3.2 km/h
423 07-05-2020 11:10:00 12.7 C 7.79 g/m*3 12.7 C 1.6 km/h
424 07-05-2020 11:15:00 13.2 C 7.92 g/m*3 13.2 C 3.2 km/h
425 07-05-2020 11:20:00 13.5 C 8.19 g/m*3 13.5 C 1.6 km/h
Sensor: Nr:Datum:Temp:Abs-Feuchte:Windchill:Wind:
Aussen-T/F 426 07-05-2020 11:25:00 13.8 C 7.86 g/m*3 13.8 C 0 km/h
427 07-05-2020 11:30:00 14.1 C 7.65 g/m*3 14.1 C 1.6 km/h
428 07-05-2020 11:35:00 14.4 C 8.28 g/m*3 14.4 C 0 km/h
429 07-05-2020 11:40:00 14.7 C 8.56 g/m*3 14.7 C 0 km/h
430 07-05-2020 11:45:00 14.8 C 7.98 g/m*3 14.8 C 0 km/h
431 07-05-2020 11:50:00 15.1 C 7.35 g/m*3 15.1 C 3.2 km/h
432 07-05-2020 11:55:00 15.4 C 7.36 g/m*3 15.4 C 6.4 km/h
433 07-05-2020 12:00:00 15.7 C 7.49 g/m*3 15.7 C 4.8 km/h
434 07-05-2020 12:05:00 15.9 C 7.31 g/m*3 15.9 C 4.8 km/h
435 07-05-2020 12:10:00 16 C 6.54 g/m*3 16 C 6.4 km/h
436 07-05-2020 12:15:00 16.1 C 6.17 g/m*3 16.1 C 4.8 km/h
437 07-05-2020 12:20:00 16.2 C 6.48 g/m*3 16.2 C 4.8 km/h
438 07-05-2020 12:25:00 16.4 C 6.28 g/m*3 16.4 C 8.1 km/h
439 07-05-2020 12:30:00 16.7 C 6.25 g/m*3 16.7 C 3.2 km/h
440 07-05-2020 12:35:00 16.7 C 6.25 g/m*3 16.7 C 9.7 km/h
441 07-05-2020 12:40:00 16.8 C 6.29 g/m*3 16.8 C 9.7 km/h
442 07-05-2020 12:45:00 16.9 C 6.04 g/m*3 16.9 C 9.7 km/h
443 07-05-2020 12:50:00 16.9 C 6.18 g/m*3 16.9 C 3.2 km/h
444 07-05-2020 12:55:00 17.1 C 6.55 g/m*3 17.1 C 3.2 km/h
445 07-05-2020 13:00:00 17.2 C 6.74 g/m*3 17.2 C 8.1 km/h
446 07-05-2020 13:05:00 17.3 C 7.07 g/m*3 17.3 C 8.1 km/h
447 07-05-2020 13:10:00 17.4 C 7.11 g/m*3 17.4 C 4.8 km/h
448 07-05-2020 13:15:00 17.6 C 7.05 g/m*3 17.6 C 6.4 km/h
449 07-05-2020 13:20:00 17.7 C 6.94 g/m*3 17.7 C 9.7 km/h
450 07-05-2020 13:25:00 17.8 C 6.98 g/m*3 17.8 C 11.3 km/h
Sensor: Nr:Datum:Temp:Abs-Feuchte:Windchill:Wind:
Aussen-T/F 451 07-05-2020 13:30:00 17.8 C 6.83 g/m*3 17.8 C 6.4 km/h
452 07-05-2020 13:35:00 17.9 C 6.87 g/m*3 17.9 C 8.1 km/h
453 07-05-2020 13:40:00 17.9 C 6.87 g/m*3 17.9 C 8.1 km/h
454 07-05-2020 13:45:00 18.1 C 6.8 g/m*3 18.1 C 12.9 km/h
455 07-05-2020 13:50:00 18.4 C 7.08 g/m*3 18.4 C 6.4 km/h
456 07-05-2020 13:55:00 18.6 C 6.84 g/m*3 18.6 C 11.3 km/h
457 07-05-2020 14:00:00 18.6 C 6.84 g/m*3 18.6 C 8.1 km/h
458 07-05-2020 14:05:00 18.6 C 6.68 g/m*3 18.6 C 8.1 km/h
459 07-05-2020 14:10:00 18.6 C 6.68 g/m*3 18.6 C 4.8 km/h
460 07-05-2020 14:15:00 18.6 C 6.68 g/m*3 18.6 C 9.7 km/h
461 07-05-2020 14:20:00 18.8 C 6.6 g/m*3 18.8 C 9.7 km/h
462 07-05-2020 14:25:00 18.9 C 6.8 g/m*3 18.9 C 8.1 km/h
463 07-05-2020 14:30:00 19.1 C 6.88 g/m*3 19.1 C 4.8 km/h
464 07-05-2020 14:35:00 19.2 C 6.6 g/m*3 19.2 C 6.4 km/h
465 07-05-2020 14:40:00 19.3 C 6.63 g/m*3 19.3 C 4.8 km/h
466 07-05-2020 14:45:00 19.4 C 6.84 g/m*3 19.4 C 6.4 km/h
467 07-05-2020 14:50:00 19.8 C 6.49 g/m*3 19.8 C 11.3 km/h
468 07-05-2020 14:55:00 19.9 C 6.53 g/m*3 19.9 C 6.4 km/h
469 07-05-2020 15:00:00 20 C 6.39 g/m*3 20 C 11.3 km/h
470 07-05-2020 15:05:00 20.1 C 6.61 g/m*3 20.1 C 8.1 km/h
471 07-05-2020 15:10:00 20.2 C 6.82 g/m*3 20.2 C 6.4 km/h
472 07-05-2020 15:15:00 20.2 C 6.82 g/m*3 20.2 C 8.1 km/h
473 07-05-2020 15:20:00 20.5 C 6.76 g/m*3 20.5 C 6.4 km/h
474 07-05-2020 15:25:00 20.7 C 6.66 g/m*3 20.7 C 6.4 km/h
475 07-05-2020 15:30:00 20.8 C 6.34 g/m*3 20.8 C 9.7 km/h
Sensor: Nr:Datum:Temp:Abs-Feuchte:Windchill:Wind:
Aussen-T/F 476 07-05-2020 15:35:00 20.9 C 7.1 g/m*3 20.9 C 4.8 km/h
477 07-05-2020 15:40:00 21.3 C 6.71 g/m*3 21.3 C 6.4 km/h
478 07-05-2020 15:45:00 21.4 C 6.56 g/m*3 21.4 C 8.1 km/h
479 07-05-2020 15:50:00 21.6 C 6.64 g/m*3 21.6 C 8.1 km/h
480 07-05-2020 15:55:00 21.8 C 6.91 g/m*3 21.8 C 4.8 km/h
481 07-05-2020 16:00:00 22.2 C 7.07 g/m*3 22.2 C 8.1 km/h
482 07-05-2020 16:05:00 22.6 C 6.83 g/m*3 22.6 C 8.1 km/h
483 07-05-2020 16:10:00 22.8 C 7.11 g/m*3 22.8 C 6.4 km/h
484 07-05-2020 16:15:00 22.9 C 6.74 g/m*3 22.9 C 4.8 km/h
485 07-05-2020 16:20:00 22.9 C 6.74 g/m*3 22.9 C 6.4 km/h
486 07-05-2020 16:25:00 22.7 C 6.67 g/m*3 22.7 C 6.4 km/h
487 07-05-2020 16:30:00 22.7 C 7.07 g/m*3 22.7 C 8.1 km/h
488 07-05-2020 16:35:00 22.8 C 6.91 g/m*3 22.8 C 6.4 km/h
489 07-05-2020 16:40:00 22.8 C 6.91 g/m*3 22.8 C 6.4 km/h
490 07-05-2020 16:45:00 23.1 C 7.23 g/m*3 23.1 C 3.2 km/h
491 07-05-2020 16:50:00 23.4 C 7.15 g/m*3 23.4 C 6.4 km/h
492 07-05-2020 16:55:00 23.4 C 6.94 g/m*3 23.4 C 6.4 km/h
493 07-05-2020 17:00:00 23.3 C 6.69 g/m*3 23.3 C 6.4 km/h
494 07-05-2020 17:05:00 23 C 6.58 g/m*3 23 C 9.7 km/h
495 07-05-2020 17:10:00 22.7 C 6.87 g/m*3 22.7 C 11.3 km/h
496 07-05-2020 17:15:00 22.8 C 6.91 g/m*3 22.8 C 9.7 km/h
497 07-05-2020 17:20:00 22.9 C 6.74 g/m*3 22.9 C 4.8 km/h
498 07-05-2020 17:25:00 23.1 C 6.82 g/m*3 23.1 C 4.8 km/h
499 07-05-2020 17:30:00 23.4 C 7.15 g/m*3 23.4 C 3.2 km/h
500 07-05-2020 17:35:00 23.8 C 7.1 g/m*3 23.8 C 1.6 km/h
Sensor: Nr:Datum:Temp:Abs-Feuchte:Windchill:Wind:
Aussen-T/F 501 07-05-2020 17:40:00 23.8 C 6.88 g/m*3 23.8 C 6.4 km/h
502 07-05-2020 17:45:00 23.5 C 6.77 g/m*3 23.5 C 8.1 km/h
503 07-05-2020 17:50:00 23.1 C 6.82 g/m*3 23.1 C 8.1 km/h
504 07-05-2020 17:55:00 23.3 C 6.69 g/m*3 23.3 C 6.4 km/h
505 07-05-2020 18:00:00 23.4 C 6.73 g/m*3 23.4 C 6.4 km/h
506 07-05-2020 18:05:00 23.4 C 6.73 g/m*3 23.4 C 8.1 km/h
507 07-05-2020 18:10:00 23.3 C 6.69 g/m*3 23.3 C 8.1 km/h
508 07-05-2020 18:15:00 23.3 C 6.9 g/m*3 23.3 C 6.4 km/h
509 07-05-2020 18:20:00 23.2 C 6.86 g/m*3 23.2 C 6.4 km/h
510 07-05-2020 18:25:00 23.2 C 6.86 g/m*3 23.2 C 6.4 km/h
511 07-05-2020 18:30:00 23.3 C 7.11 g/m*3 23.3 C 3.2 km/h
512 07-05-2020 18:35:00 23.6 C 6.81 g/m*3 23.6 C 6.4 km/h
513 07-05-2020 18:40:00 23.8 C 6.88 g/m*3 23.8 C 8.1 km/h
514 07-05-2020 18:45:00 23.6 C 7.23 g/m*3 23.6 C 8.1 km/h
515 07-05-2020 18:50:00 23.6 C 6.81 g/m*3 23.6 C 6.4 km/h
516 07-05-2020 18:55:00 23.4 C 6.73 g/m*3 23.4 C 6.4 km/h
517 07-05-2020 19:00:00 23.3 C 7.53 g/m*3 23.3 C 3.2 km/h
518 07-05-2020 19:05:00 23.4 C 6.94 g/m*3 23.4 C 4.8 km/h
519 07-05-2020 19:10:00 23.4 C 6.94 g/m*3 23.4 C 6.4 km/h
520 07-05-2020 19:15:00 23.2 C 7.07 g/m*3 23.2 C 8.1 km/h
521 07-05-2020 19:20:00 22.9 C 6.74 g/m*3 22.9 C 6.4 km/h
522 07-05-2020 19:25:00 22.8 C 6.91 g/m*3 22.8 C 4.8 km/h
523 07-05-2020 19:30:00 22.7 C 7.07 g/m*3 22.7 C 4.8 km/h
524 07-05-2020 19:35:00 22.7 C 8.89 g/m*3 22.7 C 3.2 km/h
525 07-05-2020 19:40:00 22.4 C 9.14 g/m*3 22.4 C 3.2 km/h
Sensor: Nr:Datum:Temp:Abs-Feuchte:Windchill:Wind:
Aussen-T/F 526 07-05-2020 19:45:00 22.1 C 8.98 g/m*3 22.1 C 3.2 km/h
527 07-05-2020 19:50:00 21.8 C 9.21 g/m*3 21.8 C 3.2 km/h
528 07-05-2020 19:55:00 21.3 C 8.95 g/m*3 21.3 C 3.2 km/h
529 07-05-2020 20:00:00 20.8 C 8.87 g/m*3 20.8 C 4.8 km/h
530 07-05-2020 20:05:00 20.3 C 8.62 g/m*3 20.3 C 6.4 km/h
531 07-05-2020 20:10:00 19.8 C 8.54 g/m*3 19.8 C 6.4 km/h
532 07-05-2020 20:15:00 19.2 C 8.57 g/m*3 19.2 C 4.8 km/h
533 07-05-2020 20:20:00 18.7 C 8.49 g/m*3 18.7 C 6.4 km/h
534 07-05-2020 20:25:00 18.2 C 8.08 g/m*3 18.2 C 6.4 km/h
535 07-05-2020 20:30:00 17.8 C 8.2 g/m*3 17.8 C 4.8 km/h
536 07-05-2020 20:35:00 17.4 C 8.15 g/m*3 17.4 C 6.4 km/h
537 07-05-2020 20:40:00 17.2 C 7.91 g/m*3 17.2 C 8.1 km/h
538 07-05-2020 20:45:00 16.9 C 7.77 g/m*3 16.9 C 8.1 km/h
539 07-05-2020 20:50:00 16.7 C 7.67 g/m*3 16.7 C 8.1 km/h
540 07-05-2020 20:55:00 16.6 C 7.77 g/m*3 16.6 C 4.8 km/h
541 07-05-2020 21:00:00 16.3 C 7.91 g/m*3 16.3 C 6.4 km/h
542 07-05-2020 21:05:00 16.2 C 8 g/m*3 16.2 C 6.4 km/h
543 07-05-2020 21:10:00 16 C 7.9 g/m*3 16 C 4.8 km/h
544 07-05-2020 21:15:00 15.8 C 7.81 g/m*3 15.8 C 6.4 km/h
545 07-05-2020 21:20:00 15.6 C 7.98 g/m*3 15.6 C 4.8 km/h
546 07-05-2020 21:25:00 15.4 C 8.01 g/m*3 15.4 C 4.8 km/h
547 07-05-2020 21:30:00 15.2 C 8.05 g/m*3 15.2 C 3.2 km/h
548 07-05-2020 21:35:00 15 C 8.21 g/m*3 15 C 1.6 km/h
549 07-05-2020 21:40:00 14.8 C 8.11 g/m*3 14.8 C 1.6 km/h
550 07-05-2020 21:45:00 14.5 C 8.08 g/m*3 14.5 C 1.6 km/h
Sensor: Nr:Datum:Temp:Abs-Feuchte:Windchill:Wind:
Aussen-T/F 551 07-05-2020 21:50:00 14.3 C 8.11 g/m*3 14.3 C 3.2 km/h
552 07-05-2020 21:55:00 14.1 C 8.13 g/m*3 14.1 C 1.6 km/h
553 07-05-2020 22:00:00 13.9 C 8.03 g/m*3 13.9 C 0 km/h
554 07-05-2020 22:05:00 13.7 C 8.05 g/m*3 13.7 C 0 km/h
555 07-05-2020 22:10:00 13.4 C 8.02 g/m*3 13.4 C 0 km/h
556 07-05-2020 22:15:00 13.3 C 8.09 g/m*3 13.3 C 0 km/h
557 07-05-2020 22:20:00 13.2 C 8.04 g/m*3 13.2 C 0 km/h
558 07-05-2020 22:25:00 13.1 C 8.1 g/m*3 13.1 C 1.6 km/h
559 07-05-2020 22:30:00 12.9 C 8 g/m*3 12.9 C 0 km/h
560 07-05-2020 22:35:00 12.8 C 8.06 g/m*3 12.8 C 0 km/h
561 07-05-2020 22:40:00 12.7 C 8.01 g/m*3 12.7 C 0 km/h
562 07-05-2020 22:45:00 12.6 C 7.97 g/m*3 12.6 C 0 km/h
563 07-05-2020 22:50:00 12.5 C 7.92 g/m*3 12.5 C 0 km/h
564 07-05-2020 22:55:00 12.4 C 7.87 g/m*3 12.4 C 0 km/h
565 07-05-2020 23:00:00 12.3 C 7.82 g/m*3 12.3 C 0 km/h
566 07-05-2020 23:05:00 12.1 C 7.72 g/m*3 12.1 C 0 km/h
567 07-05-2020 23:10:00 12 C 7.67 g/m*3 12 C 0 km/h
568 07-05-2020 23:15:00 11.8 C 7.58 g/m*3 11.8 C 1.6 km/h
569 07-05-2020 23:20:00 11.7 C 7.53 g/m*3 11.7 C 0 km/h
570 07-05-2020 23:25:00 11.7 C 7.64 g/m*3 11.7 C 0 km/h
571 07-05-2020 23:30:00 11.6 C 7.59 g/m*3 11.6 C 0 km/h
572 07-05-2020 23:35:00 11.7 C 7.84 g/m*3 11.7 C 0 km/h
573 07-05-2020 23:40:00 11.7 C 7.95 g/m*3 11.7 C 0 km/h
574 07-05-2020 23:45:00 11.7 C 7.95 g/m*3 11.7 C 0 km/h
575 07-05-2020 23:50:00 11.5 C 7.75 g/m*3 11.5 C 0 km/h
Sensor: Nr:Datum:Temp:Abs-Feuchte:Windchill:Wind:
Aussen-T/F 576 07-05-2020 23:55:00 11.4 C 7.7 g/m*3 11.4 C 0 km/h
577 08-05-2020 00:00:00 11.3 C 7.75 g/m*3 11.3 C 0 km/h
578 08-05-2020 00:05:00 11.2 C 7.6 g/m*3 11.2 C 0 km/h
579 08-05-2020 00:10:00 11 C 7.51 g/m*3 11 C 0 km/h
580 08-05-2020 00:15:00 10.9 C 7.56 g/m*3 10.9 C 0 km/h
581 08-05-2020 00:20:00 10.8 C 7.51 g/m*3 10.8 C 0 km/h
582 08-05-2020 00:25:00 10.7 C 7.46 g/m*3 10.7 C 0 km/h
583 08-05-2020 00:30:00 10.6 C 7.42 g/m*3 10.6 C 0 km/h
584 08-05-2020 00:35:00 10.5 C 7.37 g/m*3 10.5 C 0 km/h
585 08-05-2020 00:40:00 10.4 C 7.32 g/m*3 10.4 C 0 km/h
586 08-05-2020 00:45:00 10.3 C 7.37 g/m*3 10.3 C 0 km/h
587 08-05-2020 00:50:00 10.2 C 7.42 g/m*3 10.2 C 0 km/h
588 08-05-2020 00:55:00 10.1 C 7.38 g/m*3 10.1 C 0 km/h
589 08-05-2020 01:00:00 10 C 7.33 g/m*3 10 C 0 km/h
590 08-05-2020 01:05:00 9.9 C 7.38 g/m*3 9.9 C 3.2 km/h
591 08-05-2020 01:10:00 9.8 C 7.33 g/m*3 9.8 C 4.8 km/h
592 08-05-2020 01:15:00 9.8 C 7.33 g/m*3 9.8 C 0 km/h
593 08-05-2020 01:20:00 9.8 C 7.42 g/m*3 9.8 C 0 km/h
594 08-05-2020 01:25:00 9.8 C 7.52 g/m*3 9.8 C 0 km/h
595 08-05-2020 01:30:00 9.8 C 7.52 g/m*3 9.8 C 0 km/h
596 08-05-2020 01:35:00 9.8 C 7.52 g/m*3 9.8 C 0 km/h
597 08-05-2020 01:40:00 9.8 C 7.52 g/m*3 9.8 C 0 km/h
598 08-05-2020 01:45:00 9.8 C 7.52 g/m*3 9.8 C 0 km/h
599 08-05-2020 01:50:00 9.8 C 7.52 g/m*3 9.8 C 0 km/h
600 08-05-2020 01:55:00 9.8 C 7.52 g/m*3 9.8 C 0 km/h
Sensor: Nr:Datum:Temp:Abs-Feuchte:Windchill:Wind:
Aussen-T/F 601 08-05-2020 02:00:00 9.8 C 7.52 g/m*3 9.8 C 0 km/h
602 08-05-2020 02:05:00 9.8 C 7.52 g/m*3 9.8 C 0 km/h
603 08-05-2020 02:10:00 9.7 C 7.56 g/m*3 9.7 C 0 km/h
604 08-05-2020 02:15:00 9.6 C 7.51 g/m*3 9.6 C 0 km/h
605 08-05-2020 02:20:00 9.4 C 7.42 g/m*3 9.4 C 0 km/h
606 08-05-2020 02:25:00 9.3 C 7.37 g/m*3 9.3 C 0 km/h
607 08-05-2020 02:30:00 9.2 C 7.41 g/m*3 9.2 C 0 km/h
608 08-05-2020 02:35:00 9.1 C 7.36 g/m*3 9.1 C 0 km/h
609 08-05-2020 02:40:00 9 C 7.32 g/m*3 9 C 0 km/h
610 08-05-2020 02:45:00 8.9 C 7.27 g/m*3 8.9 C 0 km/h
611 08-05-2020 02:50:00 8.8 C 7.31 g/m*3 8.8 C 0 km/h
612 08-05-2020 02:55:00 8.7 C 7.26 g/m*3 8.7 C 0 km/h
613 08-05-2020 03:00:00 8.6 C 7.22 g/m*3 8.6 C 0 km/h
614 08-05-2020 03:05:00 8.6 C 7.22 g/m*3 8.6 C 0 km/h
615 08-05-2020 03:10:00 8.4 C 7.21 g/m*3 8.4 C 0 km/h
616 08-05-2020 03:15:00 8.4 C 7.21 g/m*3 8.4 C 0 km/h
617 08-05-2020 03:20:00 8.3 C 7.25 g/m*3 8.3 C 0 km/h
618 08-05-2020 03:25:00 8.3 C 7.25 g/m*3 8.3 C 0 km/h
619 08-05-2020 03:30:00 8.3 C 7.25 g/m*3 8.3 C 0 km/h
620 08-05-2020 03:35:00 8.2 C 7.2 g/m*3 8.2 C 0 km/h
621 08-05-2020 03:40:00 8.2 C 7.2 g/m*3 8.2 C 0 km/h
622 08-05-2020 03:45:00 8.1 C 7.16 g/m*3 8.1 C 0 km/h
623 08-05-2020 03:50:00 8 C 7.19 g/m*3 8 C 0 km/h
624 08-05-2020 03:55:00 7.9 C 7.15 g/m*3 7.9 C 0 km/h
625 08-05-2020 04:00:00 8 C 7.19 g/m*3 8 C 0 km/h
Sensor: Nr:Datum:Temp:Abs-Feuchte:Windchill:Wind:
Aussen-T/F 626 08-05-2020 04:05:00 7.9 C 7.15 g/m*3 7.9 C 0 km/h
627 08-05-2020 04:10:00 7.8 C 7.1 g/m*3 7.8 C 0 km/h
628 08-05-2020 04:15:00 7.7 C 7.05 g/m*3 7.7 C 0 km/h
629 08-05-2020 04:20:00 7.7 C 7.14 g/m*3 7.7 C 0 km/h
630 08-05-2020 04:25:00 7.6 C 7.01 g/m*3 7.6 C 0 km/h
631 08-05-2020 04:30:00 7.5 C 7.04 g/m*3 7.5 C 0 km/h
632 08-05-2020 04:35:00 7.5 C 7.04 g/m*3 7.5 C 0 km/h
633 08-05-2020 04:40:00 7.4 C 7 g/m*3 7.4 C 0 km/h
634 08-05-2020 04:45:00 7.4 C 7.08 g/m*3 7.4 C 0 km/h
635 08-05-2020 04:50:00 7.5 C 7.12 g/m*3 7.5 C 0 km/h
636 08-05-2020 04:55:00 7.4 C 7.08 g/m*3 7.4 C 0 km/h
637 08-05-2020 05:00:00 7.5 C 7.12 g/m*3 7.5 C 1.6 km/h
638 08-05-2020 05:05:00 7.6 C 7.17 g/m*3 7.6 C 0 km/h
639 08-05-2020 05:10:00 7.6 C 7.25 g/m*3 7.6 C 0 km/h
640 08-05-2020 05:15:00 7.7 C 7.3 g/m*3 7.7 C 0 km/h
641 08-05-2020 05:20:00 7.8 C 7.35 g/m*3 7.8 C 3.2 km/h
642 08-05-2020 05:25:00 7.8 C 7.26 g/m*3 7.8 C 0 km/h
643 08-05-2020 05:30:00 7.7 C 7.22 g/m*3 7.7 C 0 km/h
644 08-05-2020 05:35:00 7.7 C 7.22 g/m*3 7.7 C 0 km/h
645 08-05-2020 05:40:00 7.6 C 7.17 g/m*3 7.6 C 0 km/h
646 08-05-2020 05:45:00 7.6 C 7.17 g/m*3 7.6 C 0 km/h
647 08-05-2020 05:50:00 7.6 C 7.17 g/m*3 7.6 C 0 km/h
648 08-05-2020 05:55:00 7.6 C 7.25 g/m*3 7.6 C 0 km/h
649 08-05-2020 06:00:00 7.5 C 7.2 g/m*3 7.5 C 0 km/h
650 08-05-2020 06:05:00 7.4 C 7.16 g/m*3 7.4 C 0 km/h
Sensor: Nr:Datum:Temp:Abs-Feuchte:Windchill:Wind:
Aussen-T/F 651 08-05-2020 06:10:00 7.4 C 7.16 g/m*3 7.4 C 0 km/h
652 08-05-2020 06:15:00 7.4 C 7.16 g/m*3 7.4 C 0 km/h
653 08-05-2020 06:20:00 7.3 C 7.11 g/m*3 7.3 C 0 km/h
654 08-05-2020 06:25:00 7.3 C 7.11 g/m*3 7.3 C 1.6 km/h
655 08-05-2020 06:30:00 7.2 C 7.06 g/m*3 7.2 C 0 km/h
656 08-05-2020 06:35:00 7.1 C 7.02 g/m*3 7.1 C 0 km/h
657 08-05-2020 06:40:00 7.1 C 7.02 g/m*3 7.1 C 0 km/h
658 08-05-2020 06:45:00 7 C 6.97 g/m*3 7 C 0 km/h
659 08-05-2020 06:50:00 6.9 C 6.93 g/m*3 6.9 C 0 km/h
660 08-05-2020 06:55:00 6.9 C 7.01 g/m*3 6.9 C 0 km/h
661 08-05-2020 07:00:00 6.8 C 6.96 g/m*3 6.8 C 0 km/h
662 08-05-2020 07:05:00 6.8 C 6.96 g/m*3 6.8 C 0 km/h
663 08-05-2020 07:10:00 6.9 C 7.08 g/m*3 6.9 C 0 km/h
664 08-05-2020 07:15:00 7.1 C 7.18 g/m*3 7.1 C 0 km/h
665 08-05-2020 07:20:00 7.3 C 7.35 g/m*3 7.3 C 0 km/h
666 08-05-2020 07:25:00 7.4 C 7.32 g/m*3 7.4 C 0 km/h
667 08-05-2020 07:30:00 7.4 C 7.32 g/m*3 7.4 C 0 km/h
668 08-05-2020 07:35:00 7.4 C 7.32 g/m*3 7.4 C 1.6 km/h
669 08-05-2020 07:40:00 7.4 C 7.32 g/m*3 7.4 C 3.2 km/h
670 08-05-2020 07:45:00 7.5 C 7.36 g/m*3 7.5 C 0 km/h
671 08-05-2020 07:50:00 7.6 C 7.41 g/m*3 7.6 C 0 km/h
672 08-05-2020 07:55:00 7.7 C 7.46 g/m*3 7.7 C 0 km/h
673 08-05-2020 08:00:00 7.8 C 7.59 g/m*3 7.8 C 0 km/h
674 08-05-2020 08:05:00 8.1 C 7.74 g/m*3 8.1 C 1.6 km/h
675 08-05-2020 08:10:00 8.2 C 7.7 g/m*3 8.2 C 0 km/h
Sensor: Nr:Datum:Temp:Abs-Feuchte:Windchill:Wind:
Aussen-T/F 676 08-05-2020 08:15:00 8.3 C 7.75 g/m*3 8.3 C 0 km/h
677 08-05-2020 08:20:00 8.4 C 7.8 g/m*3 8.4 C 0 km/h
678 08-05-2020 08:25:00 8.5 C 7.77 g/m*3 8.5 C 0 km/h
679 08-05-2020 08:30:00 8.5 C 7.77 g/m*3 8.5 C 0 km/h
680 08-05-2020 08:35:00 8.6 C 7.82 g/m*3 8.6 C 0 km/h
681 08-05-2020 08:40:00 8.6 C 7.82 g/m*3 8.6 C 0 km/h
682 08-05-2020 08:45:00 8.7 C 7.87 g/m*3 8.7 C 0 km/h
683 08-05-2020 08:50:00 8.7 C 7.87 g/m*3 8.7 C 0 km/h
684 08-05-2020 08:55:00 8.8 C 7.92 g/m*3 8.8 C 0 km/h
685 08-05-2020 09:00:00 8.9 C 7.97 g/m*3 8.9 C 1.6 km/h
686 08-05-2020 09:05:00 9.1 C 8.07 g/m*3 9.1 C 0 km/h
687 08-05-2020 09:10:00 9.2 C 8.13 g/m*3 9.2 C 1.6 km/h
688 08-05-2020 09:15:00 9.4 C 8.14 g/m*3 9.4 C 3.2 km/h
689 08-05-2020 09:20:00 9.7 C 8.3 g/m*3 9.7 C 0 km/h
690 08-05-2020 09:25:00 9.8 C 8.35 g/m*3 9.8 C 0 km/h
691 08-05-2020 09:30:00 10 C 8.36 g/m*3 10 C 0 km/h
692 08-05-2020 09:35:00 10.2 C 8.47 g/m*3 10.2 C 0 km/h
693 08-05-2020 09:40:00 10.3 C 8.52 g/m*3 10.3 C 0 km/h
694 08-05-2020 09:45:00 10.5 C 8.73 g/m*3 10.5 C 0 km/h
695 08-05-2020 09:50:00 10.7 C 8.84 g/m*3 10.7 C 0 km/h
696 08-05-2020 09:55:00 10.8 C 8.8 g/m*3 10.8 C 0 km/h
697 08-05-2020 10:00:00 11 C 8.91 g/m*3 11 C 0 km/h
698 08-05-2020 10:05:00 11.2 C 9.02 g/m*3 11.2 C 0 km/h
699 08-05-2020 10:10:00 11.4 C 9.03 g/m*3 11.4 C 0 km/h
700 08-05-2020 10:15:00 11.6 C 9.04 g/m*3 11.6 C 0 km/h
Sensor: Nr:Datum:Temp:Abs-Feuchte:Windchill:Wind:
Aussen-T/F 701 08-05-2020 10:20:00 11.8 C 9.05 g/m*3 11.8 C 0 km/h
702 08-05-2020 10:25:00 12.2 C 9.28 g/m*3 12.2 C 0 km/h
703 08-05-2020 10:30:00 12.4 C 9.29 g/m*3 12.4 C 0 km/h
704 08-05-2020 10:35:00 12.7 C 9.35 g/m*3 12.7 C 0 km/h
705 08-05-2020 10:40:00 13 C 9.53 g/m*3 13 C 0 km/h
706 08-05-2020 10:45:00 13.5 C 9.24 g/m*3 13.5 C 0 km/h
707 08-05-2020 10:50:00 14.1 C 8.98 g/m*3 14.1 C 1.6 km/h
708 08-05-2020 10:55:00 14.6 C 9.13 g/m*3 14.6 C 1.6 km/h
709 08-05-2020 11:00:00 15 C 9.49 g/m*3 15 C 1.6 km/h
710 08-05-2020 11:05:00 15.3 C 9.53 g/m*3 15.3 C 3.2 km/h
711 08-05-2020 11:10:00 15.5 C 9.78 g/m*3 15.5 C 1.6 km/h
712 08-05-2020 11:15:00 15.8 C 9.83 g/m*3 15.8 C 0 km/h
713 08-05-2020 11:20:00 15.9 C 9.75 g/m*3 15.9 C 0 km/h
714 08-05-2020 11:25:00 16.2 C 9.79 g/m*3 16.2 C 1.6 km/h
715 08-05-2020 11:30:00 16.4 C 9.63 g/m*3 16.4 C 0 km/h
716 08-05-2020 11:35:00 16.7 C 9.52 g/m*3 16.7 C 1.6 km/h
717 08-05-2020 11:40:00 17.1 C 9.17 g/m*3 17.1 C 3.2 km/h
718 08-05-2020 11:45:00 17.4 C 8.89 g/m*3 17.4 C 3.2 km/h
719 08-05-2020 11:50:00 17.7 C 8.75 g/m*3 17.7 C 1.6 km/h
720 08-05-2020 11:55:00 17.9 C 8.7 g/m*3 17.9 C 1.6 km/h
721 08-05-2020 12:00:00 18.2 C 8.7 g/m*3 18.2 C 1.6 km/h
722 08-05-2020 12:05:00 18.3 C 8.29 g/m*3 18.3 C 1.6 km/h
723 08-05-2020 12:10:00 18.6 C 8.44 g/m*3 18.6 C 1.6 km/h
724 08-05-2020 12:15:00 18.7 C 8.49 g/m*3 18.7 C 1.6 km/h
725 08-05-2020 12:20:00 18.8 C 8.21 g/m*3 18.8 C 3.2 km/h
Sensor: Nr:Datum:Temp:Abs-Feuchte:Windchill:Wind:
Aussen-T/F 726 08-05-2020 12:25:00 19 C 8.15 g/m*3 19 C 1.6 km/h
727 08-05-2020 12:30:00 19.2 C 7.91 g/m*3 19.2 C 4.8 km/h
728 08-05-2020 12:35:00 19.3 C 7.8 g/m*3 19.3 C 3.2 km/h
729 08-05-2020 12:40:00 19.4 C 7.51 g/m*3 19.4 C 3.2 km/h
730 08-05-2020 12:45:00 19.6 C 8.1 g/m*3 19.6 C 3.2 km/h
731 08-05-2020 12:50:00 19.8 C 7.52 g/m*3 19.8 C 4.8 km/h
732 08-05-2020 12:55:00 19.8 C 7.52 g/m*3 19.8 C 1.6 km/h
733 08-05-2020 13:00:00 19.9 C 7.9 g/m*3 19.9 C 4.8 km/h
734 08-05-2020 13:05:00 20.1 C 7.65 g/m*3 20.1 C 8.1 km/h
735 08-05-2020 13:10:00 20.3 C 7.91 g/m*3 20.3 C 8.1 km/h
736 08-05-2020 13:15:00 20.5 C 7.47 g/m*3 20.5 C 8.1 km/h
737 08-05-2020 13:20:00 20.6 C 7.7 g/m*3 20.6 C 1.6 km/h
738 08-05-2020 13:25:00 20.7 C 7.74 g/m*3 20.7 C 4.8 km/h
739 08-05-2020 13:30:00 20.8 C 7.42 g/m*3 20.8 C 4.8 km/h
740 08-05-2020 13:35:00 21 C 7.14 g/m*3 21 C 3.2 km/h
741 08-05-2020 13:40:00 21.2 C 8.15 g/m*3 21.2 C 6.4 km/h
742 08-05-2020 13:45:00 21.3 C 7.64 g/m*3 21.3 C 3.2 km/h
743 08-05-2020 13:50:00 21.4 C 7.69 g/m*3 21.4 C 6.4 km/h
744 08-05-2020 13:55:00 21.6 C 6.83 g/m*3 21.6 C 6.4 km/h
745 08-05-2020 14:00:00 21.7 C 7.06 g/m*3 21.7 C 3.2 km/h
746 08-05-2020 14:05:00 21.8 C 7.29 g/m*3 21.8 C 4.8 km/h
747 08-05-2020 14:10:00 21.9 C 7.14 g/m*3 21.9 C 3.2 km/h
748 08-05-2020 14:15:00 21.9 C 7.14 g/m*3 21.9 C 6.4 km/h
749 08-05-2020 14:20:00 22.1 C 7.22 g/m*3 22.1 C 6.4 km/h
750 08-05-2020 14:25:00 22.2 C 7.07 g/m*3 22.2 C 4.8 km/h
Sensor: Nr:Datum:Temp:Abs-Feuchte:Windchill:Wind:
Aussen-T/F 751 08-05-2020 14:30:00 22.3 C 7.31 g/m*3 22.3 C 6.4 km/h
752 08-05-2020 14:35:00 22.5 C 6.99 g/m*3 22.5 C 8.1 km/h
753 08-05-2020 14:40:00 22.6 C 7.03 g/m*3 22.6 C 8.1 km/h
754 08-05-2020 14:45:00 22.7 C 6.87 g/m*3 22.7 C 11.3 km/h
755 08-05-2020 14:50:00 22.7 C 6.87 g/m*3 22.7 C 4.8 km/h
756 08-05-2020 14:55:00 22.7 C 6.67 g/m*3 22.7 C 6.4 km/h
757 08-05-2020 15:00:00 22.7 C 6.87 g/m*3 22.7 C 1.6 km/h
758 08-05-2020 15:05:00 22.8 C 6.91 g/m*3 22.8 C 6.4 km/h
759 08-05-2020 15:10:00 22.8 C 6.71 g/m*3 22.8 C 4.8 km/h
760 08-05-2020 15:15:00 22.9 C 7.36 g/m*3 22.9 C 3.2 km/h
761 08-05-2020 15:20:00 22.9 C 6.74 g/m*3 22.9 C 6.4 km/h
762 08-05-2020 15:25:00 22.9 C 6.74 g/m*3 22.9 C 4.8 km/h
763 08-05-2020 15:30:00 23 C 7.19 g/m*3 23 C 6.4 km/h
764 08-05-2020 15:35:00 23.1 C 6.82 g/m*3 23.1 C 6.4 km/h
765 08-05-2020 15:40:00 23.2 C 7.07 g/m*3 23.2 C 3.2 km/h
766 08-05-2020 15:45:00 23.5 C 6.98 g/m*3 23.5 C 1.6 km/h
767 08-05-2020 15:50:00 23.7 C 7.06 g/m*3 23.7 C 6.4 km/h
768 08-05-2020 15:55:00 24.1 C 7.66 g/m*3 24.1 C 6.4 km/h
769 08-05-2020 16:00:00 24.6 C 7.2 g/m*3 24.6 C 1.6 km/h
770 08-05-2020 16:05:00 24.8 C 6.83 g/m*3 24.8 C 6.4 km/h
771 08-05-2020 16:10:00 25 C 6.91 g/m*3 25 C 6.4 km/h
772 08-05-2020 16:15:00 25.1 C 6.71 g/m*3 25.1 C 6.4 km/h
773 08-05-2020 16:20:00 25.1 C 6.71 g/m*3 25.1 C 6.4 km/h
774 08-05-2020 16:25:00 25.2 C 6.98 g/m*3 25.2 C 3.2 km/h
775 08-05-2020 16:30:00 25.5 C 6.16 g/m*3 25.5 C 8.1 km/h
Sensor: Nr:Datum:Temp:Abs-Feuchte:Windchill:Wind:
Aussen-T/F 776 08-05-2020 16:35:00 25.3 C 5.85 g/m*3 25.3 C 8.1 km/h
777 08-05-2020 16:40:00 24.9 C 6.64 g/m*3 24.9 C 4.8 km/h
778 08-05-2020 16:45:00 24.7 C 6.79 g/m*3 24.7 C 3.2 km/h
779 08-05-2020 16:50:00 24.6 C 6.08 g/m*3 24.6 C 3.2 km/h
780 08-05-2020 16:55:00 24.5 C 7.61 g/m*3 24.5 C 0 km/h
781 08-05-2020 17:00:00 24.4 C 8.68 g/m*3 24.4 C 1.6 km/h
782 08-05-2020 17:05:00 24.4 C 6.23 g/m*3 24.4 C 1.6 km/h
783 08-05-2020 17:10:00 24.4 C 6.68 g/m*3 24.4 C 6.4 km/h
784 08-05-2020 17:15:00 24.7 C 8.15 g/m*3 24.7 C 3.2 km/h
785 08-05-2020 17:20:00 24.9 C 7.32 g/m*3 24.9 C 4.8 km/h
786 08-05-2020 17:25:00 24.9 C 6.87 g/m*3 24.9 C 4.8 km/h
787 08-05-2020 17:30:00 24.7 C 7.24 g/m*3 24.7 C 4.8 km/h
788 08-05-2020 17:35:00 24.3 C 7.08 g/m*3 24.3 C 6.4 km/h
789 08-05-2020 17:40:00 24.4 C 7.57 g/m*3 24.4 C 4.8 km/h
790 08-05-2020 17:45:00 24.7 C 7.47 g/m*3 24.7 C 6.4 km/h
791 08-05-2020 17:50:00 24.7 C 7.24 g/m*3 24.7 C 4.8 km/h
792 08-05-2020 17:55:00 24.6 C 6.98 g/m*3 24.6 C 6.4 km/h
793 08-05-2020 18:00:00 24.4 C 7.12 g/m*3 24.4 C 6.4 km/h
794 08-05-2020 18:05:00 24.3 C 7.3 g/m*3 24.3 C 4.8 km/h
795 08-05-2020 18:10:00 24.4 C 7.12 g/m*3 24.4 C 6.4 km/h
796 08-05-2020 18:15:00 24.4 C 6.9 g/m*3 24.4 C 6.4 km/h
797 08-05-2020 18:20:00 24.4 C 7.34 g/m*3 24.4 C 1.6 km/h
798 08-05-2020 18:25:00 24.6 C 6.98 g/m*3 24.6 C 4.8 km/h
799 08-05-2020 18:30:00 24.7 C 7.24 g/m*3 24.7 C 6.4 km/h
800 08-05-2020 18:35:00 24.8 C 7.28 g/m*3 24.8 C 4.8 km/h
Sensor: Nr:Datum:Temp:Abs-Feuchte:Windchill:Wind:
Aussen-T/F 801 08-05-2020 18:40:00 24.8 C 7.28 g/m*3 24.8 C 6.4 km/h
802 08-05-2020 18:45:00 24.7 C 7.47 g/m*3 24.7 C 9.7 km/h
803 08-05-2020 18:50:00 24.7 C 7.47 g/m*3 24.7 C 4.8 km/h
804 08-05-2020 18:55:00 24.7 C 7.47 g/m*3 24.7 C 9.7 km/h
805 08-05-2020 19:00:00 24.5 C 7.61 g/m*3 24.5 C 6.4 km/h
806 08-05-2020 19:05:00 24.1 C 7.22 g/m*3 24.1 C 6.4 km/h
807 08-05-2020 19:10:00 23.9 C 7.36 g/m*3 23.9 C 4.8 km/h
808 08-05-2020 19:15:00 23.9 C 7.14 g/m*3 23.9 C 8.1 km/h
809 08-05-2020 19:20:00 23.8 C 7.1 g/m*3 23.8 C 6.4 km/h
810 08-05-2020 19:25:00 23.7 C 7.49 g/m*3 23.7 C 8.1 km/h
811 08-05-2020 19:30:00 23.5 C 7.19 g/m*3 23.5 C 8.1 km/h
812 08-05-2020 19:35:00 23.3 C 7.11 g/m*3 23.3 C 8.1 km/h
813 08-05-2020 19:40:00 23.1 C 7.44 g/m*3 23.1 C 4.8 km/h
814 08-05-2020 19:45:00 23 C 6.99 g/m*3 23 C 8.1 km/h
815 08-05-2020 19:50:00 22.8 C 7.32 g/m*3 22.8 C 3.2 km/h
816 08-05-2020 19:55:00 22.6 C 8.04 g/m*3 22.6 C 1.6 km/h
817 08-05-2020 20:00:00 22.2 C 8.64 g/m*3 22.2 C 3.2 km/h
818 08-05-2020 20:05:00 21.6 C 8.72 g/m*3 21.6 C 1.6 km/h
819 08-05-2020 20:10:00 20.9 C 8.56 g/m*3 20.9 C 3.2 km/h
820 08-05-2020 20:15:00 20.3 C 8.62 g/m*3 20.3 C 4.8 km/h
821 08-05-2020 20:20:00 19.8 C 8.54 g/m*3 19.8 C 3.2 km/h
822 08-05-2020 20:25:00 19.3 C 8.79 g/m*3 19.3 C 3.2 km/h
823 08-05-2020 20:30:00 18.9 C 8.59 g/m*3 18.9 C 0 km/h
824 08-05-2020 20:35:00 18.5 C 8.39 g/m*3 18.5 C 1.6 km/h
825 08-05-2020 20:40:00 18.2 C 8.24 g/m*3 18.2 C 3.2 km/h
Sensor: Nr:Datum:Temp:Abs-Feuchte:Windchill:Wind:
Aussen-T/F 826 08-05-2020 20:45:00 17.9 C 8.09 g/m*3 17.9 C 4.8 km/h
827 08-05-2020 20:50:00 17.7 C 8.3 g/m*3 17.7 C 4.8 km/h
828 08-05-2020 20:55:00 17.6 C 8.4 g/m*3 17.6 C 4.8 km/h
829 08-05-2020 21:00:00 17.4 C 8.45 g/m*3 17.4 C 3.2 km/h
830 08-05-2020 21:05:00 17.3 C 8.25 g/m*3 17.3 C 4.8 km/h
831 08-05-2020 21:10:00 17.2 C 8.05 g/m*3 17.2 C 4.8 km/h
832 08-05-2020 21:15:00 17.1 C 8.88 g/m*3 17.1 C 3.2 km/h
833 08-05-2020 21:20:00 16.9 C 8.34 g/m*3 16.9 C 6.4 km/h
834 08-05-2020 21:25:00 16.7 C 8.38 g/m*3 16.7 C 4.8 km/h
835 08-05-2020 21:30:00 16.4 C 8.1 g/m*3 16.4 C 3.2 km/h
836 08-05-2020 21:35:00 16.3 C 8.32 g/m*3 16.3 C 3.2 km/h
837 08-05-2020 21:40:00 16.2 C 8.41 g/m*3 16.2 C 3.2 km/h
838 08-05-2020 21:45:00 16 C 8.58 g/m*3 16 C 4.8 km/h
839 08-05-2020 21:50:00 15.8 C 8.62 g/m*3 15.8 C 3.2 km/h
840 08-05-2020 21:55:00 15.6 C 8.38 g/m*3 15.6 C 1.6 km/h
841 08-05-2020 22:00:00 15.4 C 8.54 g/m*3 15.4 C 3.2 km/h
842 08-05-2020 22:05:00 15.3 C 8.62 g/m*3 15.3 C 3.2 km/h
843 08-05-2020 22:10:00 15.2 C 8.44 g/m*3 15.2 C 3.2 km/h
844 08-05-2020 22:15:00 15.2 C 8.7 g/m*3 15.2 C 0 km/h
845 08-05-2020 22:20:00 15.1 C 8.64 g/m*3 15.1 C 0 km/h
846 08-05-2020 22:25:00 15.1 C 8.64 g/m*3 15.1 C 0 km/h
847 08-05-2020 22:30:00 15 C 8.59 g/m*3 15 C 0 km/h
848 08-05-2020 22:35:00 14.9 C 8.67 g/m*3 14.9 C 0 km/h
849 08-05-2020 22:40:00 14.8 C 8.74 g/m*3 14.8 C 0 km/h
850 08-05-2020 22:45:00 14.8 C 8.87 g/m*3 14.8 C 0 km/h
Sensor: Nr:Datum:Temp:Abs-Feuchte:Windchill:Wind:
Aussen-T/F 851 08-05-2020 22:50:00 14.6 C 8.76 g/m*3 14.6 C 0 km/h
852 08-05-2020 22:55:00 14.4 C 8.41 g/m*3 14.4 C 0 km/h
853 08-05-2020 23:00:00 14.3 C 8.35 g/m*3 14.3 C 0 km/h
854 08-05-2020 23:05:00 14.3 C 8.35 g/m*3 14.3 C 0 km/h
855 08-05-2020 23:10:00 14.2 C 8.55 g/m*3 14.2 C 0 km/h
856 08-05-2020 23:15:00 14.1 C 8.37 g/m*3 14.1 C 0 km/h
857 08-05-2020 23:20:00 14.1 C 8.5 g/m*3 14.1 C 0 km/h
858 08-05-2020 23:25:00 13.9 C 8.51 g/m*3 13.9 C 0 km/h
859 08-05-2020 23:30:00 13.8 C 8.46 g/m*3 13.8 C 0 km/h
860 08-05-2020 23:35:00 13.7 C 8.29 g/m*3 13.7 C 0 km/h
861 08-05-2020 23:40:00 13.6 C 8.12 g/m*3 13.6 C 0 km/h
862 08-05-2020 23:45:00 13.6 C 8.47 g/m*3 13.6 C 0 km/h
863 08-05-2020 23:50:00 13.5 C 8.3 g/m*3 13.5 C 0 km/h
864 08-05-2020 23:55:00 13.4 C 8.14 g/m*3 13.4 C 0 km/h

Legende:
   Min
   Max


Maximal/Minimal-Werte vom 06.05.2020 - 08.05.2020

Sensor Min Max Avg
Temp
(Aussen-T/F)
2 °C
06-05-2020  06:30:00
25.5 °C
08-05-2020  16:30:00
12.61 °C
Abs-Feuchte
(Aussen-T/F)
4.31 g/m*3
06-05-2020  14:35:00
9.83 g/m*3
08-05-2020  11:15:00
6.67 g/m*3
Windchill
(Aussen-T/F)
2 C
06-05-2020  06:30:00
25.5 C
08-05-2020  16:30:00
12.59 C

Die Daten stammen von einer Davis Vantage Pro 2 Wetter-Station und werden unter Linux mit der Software wview2wettercgi und aufbereitet. Alle Angaben erfolgen ohne Gewähr für ihre Vollständigkeit oder Richtigkeit.
Kontakt: Rainer Krienke krienke@uni-koblenz.de . Meine Webseiten an der Uni Koblenz oder privat.
Version: $Revision: 0.78 $